sensor_id;sensor_type;location;lat;lon;timestamp;pressure;altitude;pressure_sealevel;temperature;humidity
77410;BME280;66481;51.332;22.804;2023-03-23T00:03:24;99147.31;;;8.56;73.73
77410;BME280;66481;51.332;22.804;2023-03-23T00:07:29;99147.03;;;8.47;73.76
77410;BME280;66481;51.332;22.804;2023-03-23T00:11:32;99147.78;;;8.50;74.63
77410;BME280;66481;51.332;22.804;2023-03-23T00:15:33;99141.81;;;8.59;74.25
77410;BME280;66481;51.332;22.804;2023-03-23T00:19:38;99130.19;;;8.61;73.81
77410;BME280;66481;51.332;22.804;2023-03-23T00:23:46;99129.53;;;8.71;73.85
77410;BME280;66481;51.332;22.804;2023-03-23T00:27:48;99130.38;;;8.82;72.74
77410;BME280;66481;51.332;22.804;2023-03-23T00:31:49;99125.34;;;8.91;72.67
77410;BME280;66481;51.332;22.804;2023-03-23T00:35:50;99121.63;;;8.82;73.72
77410;BME280;66481;51.332;22.804;2023-03-23T00:39:53;99123.03;;;8.75;74.67
77410;BME280;66481;51.332;22.804;2023-03-23T00:43:58;99116.81;;;8.87;73.13
77410;BME280;66481;51.332;22.804;2023-03-23T00:48:01;99110.34;;;8.80;73.78
77410;BME280;66481;51.332;22.804;2023-03-23T00:52:05;99103.38;;;8.79;73.94
77410;BME280;66481;51.332;22.804;2023-03-23T00:56:08;99106.00;;;8.79;73.60
77410;BME280;66481;51.332;22.804;2023-03-23T01:00:10;99100.13;;;8.75;74.09
77410;BME280;66481;51.332;22.804;2023-03-23T01:04:11;99097.03;;;8.81;74.30
77410;BME280;66481;51.332;22.804;2023-03-23T01:08:14;99094.50;;;8.80;74.12
77410;BME280;66481;51.332;22.804;2023-03-23T01:12:15;99088.41;;;8.79;74.11
77410;BME280;66481;51.332;22.804;2023-03-23T01:16:16;99092.47;;;8.72;74.17
77410;BME280;66481;51.332;22.804;2023-03-23T01:20:17;99072.75;;;8.54;75.35
77410;BME280;66481;51.332;22.804;2023-03-23T01:24:18;99074.56;;;8.53;75.24
77410;BME280;66481;51.332;22.804;2023-03-23T01:28:19;99077.94;;;8.55;75.12
77410;BME280;66481;51.332;22.804;2023-03-23T01:32:20;99067.06;;;8.36;75.42
77410;BME280;66481;51.332;22.804;2023-03-23T01:36:24;99078.38;;;8.25;76.06
77410;BME280;66481;51.332;22.804;2023-03-23T01:40:27;99063.28;;;8.27;75.65
77410;BME280;66481;51.332;22.804;2023-03-23T01:48:35;99058.88;;;8.27;76.12
77410;BME280;66481;51.332;22.804;2023-03-23T01:52:37;99060.19;;;8.22;76.93
77410;BME280;66481;51.332;22.804;2023-03-23T01:56:46;99064.72;;;8.20;76.45
77410;BME280;66481;51.332;22.804;2023-03-23T02:00:48;99058.59;;;8.19;77.01
77410;BME280;66481;51.332;22.804;2023-03-23T02:04:49;99054.56;;;8.26;76.09
77410;BME280;66481;51.332;22.804;2023-03-23T02:08:51;99062.34;;;8.28;76.64
77410;BME280;66481;51.332;22.804;2023-03-23T02:12:53;99051.69;;;8.29;76.72
77410;BME280;66481;51.332;22.804;2023-03-23T02:17:09;99053.63;;;8.39;76.31
77410;BME280;66481;51.332;22.804;2023-03-23T02:37:55;99067.94;;;8.47;75.57
77410;BME280;66481;51.332;22.804;2023-03-23T02:42:05;99065.09;;;8.51;75.67
77410;BME280;66481;51.332;22.804;2023-03-23T02:46:08;99070.16;;;8.41;76.23
77410;BME280;66481;51.332;22.804;2023-03-23T02:50:11;99064.81;;;8.42;75.67
77410;BME280;66481;51.332;22.804;2023-03-23T02:54:15;99069.06;;;8.32;76.17
77410;BME280;66481;51.332;22.804;2023-03-23T02:58:17;99070.97;;;8.30;76.73
77410;BME280;66481;51.332;22.804;2023-03-23T03:02:29;99069.66;;;8.24;75.86
77410;BME280;66481;51.332;22.804;2023-03-23T03:06:46;99070.94;;;8.19;76.38
77410;BME280;66481;51.332;22.804;2023-03-23T03:10:59;99066.81;;;8.03;77.07
77410;BME280;66481;51.332;22.804;2023-03-23T03:15:11;99065.47;;;7.98;78.03
77410;BME280;66481;51.332;22.804;2023-03-23T03:19:19;99065.19;;;7.89;77.59
77410;BME280;66481;51.332;22.804;2023-03-23T03:23:22;99059.34;;;7.97;77.52
77410;BME280;66481;51.332;22.804;2023-03-23T03:27:25;99058.63;;;7.95;77.77
77410;BME280;66481;51.332;22.804;2023-03-23T03:31:29;99064.84;;;7.94;78.11
77410;BME280;66481;51.332;22.804;2023-03-23T03:35:36;99066.94;;;8.02;77.61
77410;BME280;66481;51.332;22.804;2023-03-23T03:39:38;99063.91;;;7.95;77.91
77410;BME280;66481;51.332;22.804;2023-03-23T03:43:40;99062.84;;;7.98;77.64
77410;BME280;66481;51.332;22.804;2023-03-23T03:47:41;99054.59;;;8.02;77.26
77410;BME280;66481;51.332;22.804;2023-03-23T03:51:43;99057.72;;;8.07;77.04
77410;BME280;66481;51.332;22.804;2023-03-23T03:55:44;99058.31;;;8.11;77.21
77410;BME280;66481;51.332;22.804;2023-03-23T03:59:50;99053.28;;;8.08;77.08
77410;BME280;66481;51.332;22.804;2023-03-23T04:03:51;99049.09;;;8.05;77.78
77410;BME280;66481;51.332;22.804;2023-03-23T04:07:52;99048.41;;;8.15;77.38
77410;BME280;66481;51.332;22.804;2023-03-23T04:11:53;99041.97;;;8.19;76.44
77410;BME280;66481;51.332;22.804;2023-03-23T04:15:54;99041.16;;;8.29;75.75
77410;BME280;66481;51.332;22.804;2023-03-23T04:19:55;99048.22;;;8.29;76.94
77410;BME280;66481;51.332;22.804;2023-03-23T04:24:00;99037.94;;;8.37;75.51
77410;BME280;66481;51.332;22.804;2023-03-23T04:28:02;99035.91;;;8.41;75.78
77410;BME280;66481;51.332;22.804;2023-03-23T04:32:03;99033.78;;;8.46;75.87
77410;BME280;66481;51.332;22.804;2023-03-23T04:36:04;99023.22;;;8.46;75.83
77410;BME280;66481;51.332;22.804;2023-03-23T04:40:08;99023.88;;;8.50;75.95
77410;BME280;66481;51.332;22.804;2023-03-23T04:44:15;99020.47;;;8.47;75.39
77410;BME280;66481;51.332;22.804;2023-03-23T04:48:18;99029.00;;;8.51;75.92
77410;BME280;66481;51.332;22.804;2023-03-23T04:52:20;99024.81;;;8.49;75.33
77410;BME280;66481;51.332;22.804;2023-03-23T04:56:21;99045.31;;;8.56;74.73
77410;BME280;66481;51.332;22.804;2023-03-23T05:00:22;99043.28;;;8.60;74.66
77410;BME280;66481;51.332;22.804;2023-03-23T05:04:23;99032.50;;;8.63;74.48
77410;BME280;66481;51.332;22.804;2023-03-23T05:08:25;99037.53;;;8.55;74.54
77410;BME280;66481;51.332;22.804;2023-03-23T05:12:26;99036.56;;;8.56;74.77
77410;BME280;66481;51.332;22.804;2023-03-23T05:16:27;99030.09;;;8.49;75.42
77410;BME280;66481;51.332;22.804;2023-03-23T05:20:29;99034.16;;;8.53;75.21
77410;BME280;66481;51.332;22.804;2023-03-23T05:24:31;99039.44;;;8.53;75.10
77410;BME280;66481;51.332;22.804;2023-03-23T05:28:33;99047.88;;;8.69;74.65
77410;BME280;66481;51.332;22.804;2023-03-23T05:32:34;99050.13;;;8.74;74.15
77410;BME280;66481;51.332;22.804;2023-03-23T05:36:35;99059.88;;;8.84;73.71
77410;BME280;66481;51.332;22.804;2023-03-23T05:40:38;99052.63;;;9.98;71.04
77410;BME280;66481;51.332;22.804;2023-03-23T05:44:39;99043.09;;;11.12;66.46
77410;BME280;66481;51.332;22.804;2023-03-23T05:48:41;99050.63;;;11.57;63.81
77410;BME280;66481;51.332;22.804;2023-03-23T05:52:42;99049.69;;;11.68;63.82
77410;BME280;66481;51.332;22.804;2023-03-23T05:56:45;99049.63;;;11.48;63.97
77410;BME280;66481;51.332;22.804;2023-03-23T06:00:46;99050.44;;;12.19;61.99
77410;BME280;66481;51.332;22.804;2023-03-23T06:04:47;99031.97;;;13.41;58.44
77410;BME280;66481;51.332;22.804;2023-03-23T06:08:49;99029.84;;;13.90;57.23
77410;BME280;66481;51.332;22.804;2023-03-23T06:12:51;99032.13;;;13.40;56.81
77410;BME280;66481;51.332;22.804;2023-03-23T06:16:52;99028.88;;;11.63;62.46
77410;BME280;66481;51.332;22.804;2023-03-23T06:20:53;99033.47;;;11.52;63.05
77410;BME280;66481;51.332;22.804;2023-03-23T06:24:54;99026.94;;;13.01;58.77
77410;BME280;66481;51.332;22.804;2023-03-23T06:28:58;99017.94;;;13.49;57.02
77410;BME280;66481;51.332;22.804;2023-03-23T06:32:59;99027.84;;;13.92;55.46
77410;BME280;66481;51.332;22.804;2023-03-23T06:37:01;99022.69;;;13.91;55.44
77410;BME280;66481;51.332;22.804;2023-03-23T06:41:02;99016.84;;;13.87;56.05
77410;BME280;66481;51.332;22.804;2023-03-23T06:45:04;99025.94;;;13.67;56.66
77410;BME280;66481;51.332;22.804;2023-03-23T06:49:05;99025.56;;;12.96;57.96
77410;BME280;66481;51.332;22.804;2023-03-23T06:53:06;99032.41;;;12.52;59.26
77410;BME280;66481;51.332;22.804;2023-03-23T06:57:08;99036.03;;;13.35;58.18
77410;BME280;66481;51.332;22.804;2023-03-23T07:01:09;99037.88;;;13.63;57.24
77410;BME280;66481;51.332;22.804;2023-03-23T07:05:11;99035.91;;;14.37;54.40
77410;BME280;66481;51.332;22.804;2023-03-23T07:09:12;99026.72;;;16.20;50.55
77410;BME280;66481;51.332;22.804;2023-03-23T07:13:13;99027.03;;;15.92;50.88
77410;BME280;66481;51.332;22.804;2023-03-23T07:17:14;99033.88;;;14.57;54.34
77410;BME280;66481;51.332;22.804;2023-03-23T07:21:15;99019.34;;;13.71;56.03
77410;BME280;66481;51.332;22.804;2023-03-23T07:25:17;99037.34;;;13.31;57.51
77410;BME280;66481;51.332;22.804;2023-03-23T07:29:20;99020.16;;;13.26;57.69
77410;BME280;66481;51.332;22.804;2023-03-23T07:33:21;99031.47;;;13.56;56.13
77410;BME280;66481;51.332;22.804;2023-03-23T07:37:23;99027.19;;;13.90;56.30
77410;BME280;66481;51.332;22.804;2023-03-23T07:41:24;99024.97;;;13.40;58.18
77410;BME280;66481;51.332;22.804;2023-03-23T07:45:25;99025.75;;;13.23;59.03
77410;BME280;66481;51.332;22.804;2023-03-23T07:49:28;99022.25;;;12.85;59.49
77410;BME280;66481;51.332;22.804;2023-03-23T07:53:31;99020.56;;;12.93;59.23
77410;BME280;66481;51.332;22.804;2023-03-23T07:57:32;99020.59;;;13.11;60.06
77410;BME280;66481;51.332;22.804;2023-03-23T08:01:34;99018.53;;;13.15;58.32
77410;BME280;66481;51.332;22.804;2023-03-23T08:05:35;99009.66;;;13.52;57.77
77410;BME280;66481;51.332;22.804;2023-03-23T08:09:36;99004.69;;;13.85;57.58
77410;BME280;66481;51.332;22.804;2023-03-23T08:13:38;99018.28;;;13.64;57.88
77410;BME280;66481;51.332;22.804;2023-03-23T08:17:39;99015.63;;;13.64;57.86
77410;BME280;66481;51.332;22.804;2023-03-23T08:21:41;99012.19;;;13.71;57.80
77410;BME280;66481;51.332;22.804;2023-03-23T08:25:42;99023.13;;;13.68;58.68
77410;BME280;66481;51.332;22.804;2023-03-23T08:29:45;99022.53;;;13.92;57.87
77410;BME280;66481;51.332;22.804;2023-03-23T08:33:46;99033.84;;;14.30;57.17
77410;BME280;66481;51.332;22.804;2023-03-23T08:37:48;99035.88;;;14.73;56.33
77410;BME280;66481;51.332;22.804;2023-03-23T08:41:51;99030.84;;;15.81;53.53
77410;BME280;66481;51.332;22.804;2023-03-23T08:45:53;99034.34;;;15.90;52.15
77410;BME280;66481;51.332;22.804;2023-03-23T08:49:54;99036.22;;;16.22;51.22
77410;BME280;66481;51.332;22.804;2023-03-23T08:53:56;99043.56;;;16.61;50.14
77410;BME280;66481;51.332;22.804;2023-03-23T08:57:57;99044.94;;;15.65;51.87
77410;BME280;66481;51.332;22.804;2023-03-23T09:01:58;99046.03;;;15.89;52.03
77410;BME280;66481;51.332;22.804;2023-03-23T09:06:02;99046.69;;;15.83;52.34
77410;BME280;66481;51.332;22.804;2023-03-23T09:10:03;99049.16;;;15.76;52.44
77410;BME280;66481;51.332;22.804;2023-03-23T09:14:06;99042.63;;;15.28;53.69
77410;BME280;66481;51.332;22.804;2023-03-23T09:18:08;99034.16;;;15.32;52.88
77410;BME280;66481;51.332;22.804;2023-03-23T09:22:09;99032.78;;;15.20;53.26
77410;BME280;66481;51.332;22.804;2023-03-23T09:26:10;99041.81;;;15.27;53.36
77410;BME280;66481;51.332;22.804;2023-03-23T09:30:12;99034.09;;;14.90;53.35
77410;BME280;66481;51.332;22.804;2023-03-23T09:34:15;99025.56;;;14.78;53.64
77410;BME280;66481;51.332;22.804;2023-03-23T09:38:16;99035.56;;;15.10;53.85
77410;BME280;66481;51.332;22.804;2023-03-23T09:50:44;99026.75;;;14.83;54.31
77410;BME280;66481;51.332;22.804;2023-03-23T09:54:51;99026.59;;;15.11;54.91
77410;BME280;66481;51.332;22.804;2023-03-23T10:03:40;99023.50;;;15.75;52.95
77410;BME280;66481;51.332;22.804;2023-03-23T10:07:41;99009.00;;;15.86;52.71
77410;BME280;66481;51.332;22.804;2023-03-23T10:12:04;98993.44;;;16.80;49.30
77410;BME280;66481;51.332;22.804;2023-03-23T10:16:12;98994.81;;;16.84;51.34
77410;BME280;66481;51.332;22.804;2023-03-23T10:20:23;98996.81;;;16.65;50.23
77410;BME280;66481;51.332;22.804;2023-03-23T10:24:32;98993.19;;;16.25;50.45
77410;BME280;66481;51.332;22.804;2023-03-23T10:28:36;98975.97;;;16.36;51.75
77410;BME280;66481;51.332;22.804;2023-03-23T10:41:24;98989.16;;;16.21;51.23
77410;BME280;66481;51.332;22.804;2023-03-23T10:45:27;98994.00;;;16.34;51.02
77410;BME280;66481;51.332;22.804;2023-03-23T10:49:36;98994.19;;;16.41;51.16
77410;BME280;66481;51.332;22.804;2023-03-23T10:54:00;98985.56;;;16.78;50.52
77410;BME280;66481;51.332;22.804;2023-03-23T10:58:06;98987.59;;;16.68;51.13
77410;BME280;66481;51.332;22.804;2023-03-23T11:02:16;98980.94;;;16.72;50.28
77410;BME280;66481;51.332;22.804;2023-03-23T11:06:30;98977.06;;;16.74;51.59
77410;BME280;66481;51.332;22.804;2023-03-23T11:10:42;98977.84;;;16.35;50.56
77410;BME280;66481;51.332;22.804;2023-03-23T11:14:47;98974.28;;;16.51;50.89
77410;BME280;66481;51.332;22.804;2023-03-23T11:18:49;98965.88;;;16.79;50.30
77410;BME280;66481;51.332;22.804;2023-03-23T11:22:50;98971.91;;;16.73;50.74
77410;BME280;66481;51.332;22.804;2023-03-23T11:26:52;98953.78;;;17.08;48.30
77410;BME280;66481;51.332;22.804;2023-03-23T11:30:55;98950.00;;;16.94;49.03
77410;BME280;66481;51.332;22.804;2023-03-23T11:35:00;98966.69;;;17.04;49.78
77410;BME280;66481;51.332;22.804;2023-03-23T11:39:16;98959.91;;;16.61;50.39
77410;BME280;66481;51.332;22.804;2023-03-23T11:43:23;98954.19;;;16.80;49.62
77410;BME280;66481;51.332;22.804;2023-03-23T11:47:39;98950.50;;;16.98;50.88
77410;BME280;66481;51.332;22.804;2023-03-23T11:51:49;98939.75;;;16.42;48.84
77410;BME280;66481;51.332;22.804;2023-03-23T11:55:58;98937.06;;;16.50;50.91
77410;BME280;66481;51.332;22.804;2023-03-23T12:00:10;98942.47;;;16.09;50.27
77410;BME280;66481;51.332;22.804;2023-03-23T12:09:33;98937.25;;;16.40;50.45
77410;BME280;66481;51.332;22.804;2023-03-23T12:13:46;98934.28;;;16.02;51.05
77410;BME280;66481;51.332;22.804;2023-03-23T12:26:32;98906.81;;;15.85;52.07
77410;BME280;66481;51.332;22.804;2023-03-23T12:34:58;98895.09;;;15.86;52.54
77410;BME280;66481;51.332;22.804;2023-03-23T12:39:41;98901.28;;;15.78;52.79
77410;BME280;66481;51.332;22.804;2023-03-23T12:43:52;98903.78;;;15.88;51.79
77410;BME280;66481;51.332;22.804;2023-03-23T12:48:02;98908.13;;;15.89;52.32
77410;BME280;66481;51.332;22.804;2023-03-23T13:00:55;98875.47;;;16.51;50.37
77410;BME280;66481;51.332;22.804;2023-03-23T13:05:04;98864.81;;;16.91;50.12
77410;BME280;66481;51.332;22.804;2023-03-23T13:13:39;98845.88;;;17.01;49.87
77410;BME280;66481;51.332;22.804;2023-03-23T13:26:01;98824.75;;;17.14;48.02
77410;BME280;66481;51.332;22.804;2023-03-23T13:30:04;98821.97;;;17.31;48.77
77410;BME280;66481;51.332;22.804;2023-03-23T13:34:22;98821.59;;;17.34;47.50
77410;BME280;66481;51.332;22.804;2023-03-23T13:38:26;98821.66;;;17.48;47.19
77410;BME280;66481;51.332;22.804;2023-03-23T13:42:32;98819.63;;;17.51;47.06
77410;BME280;66481;51.332;22.804;2023-03-23T13:46:36;98820.00;;;17.47;46.23
77410;BME280;66481;51.332;22.804;2023-03-23T13:50:56;98817.31;;;17.85;45.58
77410;BME280;66481;51.332;22.804;2023-03-23T13:59:45;98812.47;;;18.49;41.73
77410;BME280;66481;51.332;22.804;2023-03-23T14:03:48;98817.56;;;18.29;42.64
77410;BME280;66481;51.332;22.804;2023-03-23T14:12:03;98808.75;;;17.52;44.31
77410;BME280;66481;51.332;22.804;2023-03-23T14:20:38;98806.69;;;17.16;45.38
77410;BME280;66481;51.332;22.804;2023-03-23T14:24:40;98816.69;;;16.99;46.36
77410;BME280;66481;51.332;22.804;2023-03-23T14:28:45;98802.41;;;16.76;48.40
77410;BME280;66481;51.332;22.804;2023-03-23T14:32:46;98807.72;;;16.52;48.97
77410;BME280;66481;51.332;22.804;2023-03-23T14:36:49;98804.59;;;16.41;48.64
77410;BME280;66481;51.332;22.804;2023-03-23T14:40:50;98803.25;;;16.36;48.09
77410;BME280;66481;51.332;22.804;2023-03-23T14:44:52;98788.94;;;16.29;48.65
77410;BME280;66481;51.332;22.804;2023-03-23T14:48:53;98790.97;;;16.19;49.59
77410;BME280;66481;51.332;22.804;2023-03-23T14:57:28;98791.56;;;15.90;51.68
77410;BME280;66481;51.332;22.804;2023-03-23T15:01:31;98778.44;;;15.80;51.88
77410;BME280;66481;51.332;22.804;2023-03-23T15:05:41;98779.06;;;15.74;52.13
77410;BME280;66481;51.332;22.804;2023-03-23T15:09:45;98786.22;;;15.73;52.18
77410;BME280;66481;51.332;22.804;2023-03-23T15:13:50;98787.75;;;15.68;52.13
77410;BME280;66481;51.332;22.804;2023-03-23T15:17:51;98794.59;;;15.54;54.11
77410;BME280;66481;51.332;22.804;2023-03-23T15:21:57;98796.44;;;15.45;54.38
77410;BME280;66481;51.332;22.804;2023-03-23T15:26:05;98789.59;;;15.51;53.67
77410;BME280;66481;51.332;22.804;2023-03-23T15:34:32;98786.94;;;15.59;53.73
77410;BME280;66481;51.332;22.804;2023-03-23T15:38:35;98785.09;;;15.59;53.73
77410;BME280;66481;51.332;22.804;2023-03-23T15:42:36;98782.91;;;15.71;53.04
77410;BME280;66481;51.332;22.804;2023-03-23T15:46:51;98785.72;;;15.94;50.34
77410;BME280;66481;51.332;22.804;2023-03-23T15:50:53;98779.88;;;15.99;50.63
77410;BME280;66481;51.332;22.804;2023-03-23T15:54:54;98779.84;;;16.07;49.29
77410;BME280;66481;51.332;22.804;2023-03-23T15:58:56;98772.94;;;16.21;47.71
77410;BME280;66481;51.332;22.804;2023-03-23T16:03:00;98776.41;;;16.30;46.95
77410;BME280;66481;51.332;22.804;2023-03-23T16:07:03;98772.28;;;16.19;47.67
77410;BME280;66481;51.332;22.804;2023-03-23T16:11:04;98790.31;;;16.25;47.10
77410;BME280;66481;51.332;22.804;2023-03-23T16:15:06;98793.78;;;16.26;47.57
77410;BME280;66481;51.332;22.804;2023-03-23T16:19:11;98791.63;;;16.21;47.66
77410;BME280;66481;51.332;22.804;2023-03-23T16:23:13;98795.31;;;16.28;47.23
77410;BME280;66481;51.332;22.804;2023-03-23T16:27:14;98804.50;;;16.17;48.13
77410;BME280;66481;51.332;22.804;2023-03-23T16:31:16;98804.84;;;16.14;48.28
77410;BME280;66481;51.332;22.804;2023-03-23T16:35:18;98797.69;;;15.98;49.21
77410;BME280;66481;51.332;22.804;2023-03-23T16:39:19;98819.75;;;15.92;49.99
77410;BME280;66481;51.332;22.804;2023-03-23T16:43:21;98811.75;;;15.84;49.66
77410;BME280;66481;51.332;22.804;2023-03-23T16:47:23;98821.25;;;15.87;49.71
77410;BME280;66481;51.332;22.804;2023-03-23T16:51:26;98820.63;;;15.76;50.64
77410;BME280;66481;51.332;22.804;2023-03-23T16:55:29;98840.59;;;15.56;51.14
77410;BME280;66481;51.332;22.804;2023-03-23T16:59:31;98829.75;;;15.41;52.54
77410;BME280;66481;51.332;22.804;2023-03-23T17:03:32;98849.25;;;15.33;53.05
77410;BME280;66481;51.332;22.804;2023-03-23T17:07:33;98841.38;;;15.15;53.67
77410;BME280;66481;51.332;22.804;2023-03-23T17:11:35;98861.22;;;15.13;53.97
77410;BME280;66481;51.332;22.804;2023-03-23T17:15:39;98862.16;;;15.03;54.13
77410;BME280;66481;51.332;22.804;2023-03-23T17:19:43;98862.50;;;15.00;53.95
77410;BME280;66481;51.332;22.804;2023-03-23T17:23:45;98871.81;;;14.96;54.12
77410;BME280;66481;51.332;22.804;2023-03-23T17:27:47;98884.47;;;14.94;54.22
77410;BME280;66481;51.332;22.804;2023-03-23T17:31:48;98868.59;;;14.84;54.60
77410;BME280;66481;51.332;22.804;2023-03-23T17:35:49;98881.75;;;14.78;54.49
77410;BME280;66481;51.332;22.804;2023-03-23T17:39:51;98883.56;;;14.69;55.34
77410;BME280;66481;51.332;22.804;2023-03-23T17:43:53;98880.78;;;14.53;56.00
77410;BME280;66481;51.332;22.804;2023-03-23T17:47:54;98895.00;;;14.35;56.42
77410;BME280;66481;51.332;22.804;2023-03-23T17:51:57;98887.09;;;14.25;57.20
77410;BME280;66481;51.332;22.804;2023-03-23T17:55:58;98885.66;;;14.31;57.08
77410;BME280;66481;51.332;22.804;2023-03-23T17:59:59;98891.59;;;14.25;57.30
77410;BME280;66481;51.332;22.804;2023-03-23T18:04:01;98898.53;;;14.18;57.45
77410;BME280;66481;51.332;22.804;2023-03-23T18:08:04;98903.88;;;14.18;57.66
77410;BME280;66481;51.332;22.804;2023-03-23T18:12:06;98914.00;;;14.14;58.09
77410;BME280;66481;51.332;22.804;2023-03-23T18:16:07;98920.06;;;14.06;58.98
77410;BME280;66481;51.332;22.804;2023-03-23T18:20:09;98917.00;;;13.93;58.19
77410;BME280;66481;51.332;22.804;2023-03-23T18:24:11;98932.63;;;13.96;59.06
77410;BME280;66481;51.332;22.804;2023-03-23T18:28:12;98920.78;;;13.90;59.32
77410;BME280;66481;51.332;22.804;2023-03-23T18:32:14;98935.09;;;13.89;59.15
77410;BME280;66481;51.332;22.804;2023-03-23T18:36:18;98931.19;;;13.84;59.45
77410;BME280;66481;51.332;22.804;2023-03-23T18:40:20;98923.47;;;13.72;59.71
77410;BME280;66481;51.332;22.804;2023-03-23T18:44:21;98935.09;;;13.71;60.34
77410;BME280;66481;51.332;22.804;2023-03-23T18:48:23;98942.84;;;13.65;61.44
77410;BME280;66481;51.332;22.804;2023-03-23T18:52:24;98936.75;;;13.54;62.92
77410;BME280;66481;51.332;22.804;2023-03-23T18:56:26;98944.34;;;13.49;64.80
77410;BME280;66481;51.332;22.804;2023-03-23T19:00:28;98945.69;;;13.35;65.75
77410;BME280;66481;51.332;22.804;2023-03-23T19:04:30;98948.03;;;13.21;66.70
77410;BME280;66481;51.332;22.804;2023-03-23T19:08:33;98954.69;;;12.97;68.70
77410;BME280;66481;51.332;22.804;2023-03-23T19:12:38;98960.69;;;12.71;69.51
77410;BME280;66481;51.332;22.804;2023-03-23T19:16:40;98965.78;;;12.55;69.80
77410;BME280;66481;51.332;22.804;2023-03-23T19:20:42;98959.53;;;12.46;70.79
77410;BME280;66481;51.332;22.804;2023-03-23T19:24:44;98955.03;;;12.47;70.73
77410;BME280;66481;51.332;22.804;2023-03-23T19:28:46;98955.59;;;12.40;70.77
77410;BME280;66481;51.332;22.804;2023-03-23T19:32:47;98954.09;;;12.28;71.39
77410;BME280;66481;51.332;22.804;2023-03-23T19:36:49;98954.00;;;12.20;71.96
77410;BME280;66481;51.332;22.804;2023-03-23T19:40:55;98939.19;;;12.17;72.38
77410;BME280;66481;51.332;22.804;2023-03-23T19:45:03;98942.00;;;12.06;73.42
77410;BME280;66481;51.332;22.804;2023-03-23T19:49:05;98953.72;;;12.13;72.38
77410;BME280;66481;51.332;22.804;2023-03-23T19:53:08;98962.78;;;12.11;72.93
77410;BME280;66481;51.332;22.804;2023-03-23T19:57:10;98967.13;;;12.02;74.31
77410;BME280;66481;51.332;22.804;2023-03-23T20:01:11;98958.47;;;12.00;73.52
77410;BME280;66481;51.332;22.804;2023-03-23T20:05:13;98963.91;;;11.98;74.36
77410;BME280;66481;51.332;22.804;2023-03-23T20:09:15;98959.59;;;12.07;73.61
77410;BME280;66481;51.332;22.804;2023-03-23T20:13:17;98958.75;;;12.07;73.78
77410;BME280;66481;51.332;22.804;2023-03-23T20:17:18;98958.63;;;12.08;73.01
77410;BME280;66481;51.332;22.804;2023-03-23T20:21:21;98968.22;;;12.09;73.81
77410;BME280;66481;51.332;22.804;2023-03-23T20:25:24;98963.78;;;12.10;73.78
77410;BME280;66481;51.332;22.804;2023-03-23T20:29:26;98962.81;;;12.01;73.80
77410;BME280;66481;51.332;22.804;2023-03-23T20:33:28;98964.75;;;12.09;73.53
77410;BME280;66481;51.332;22.804;2023-03-23T20:37:36;98963.66;;;12.11;73.33
77410;BME280;66481;51.332;22.804;2023-03-23T20:41:39;98961.25;;;11.98;73.37
77410;BME280;66481;51.332;22.804;2023-03-23T20:45:41;98972.16;;;11.95;73.93
77410;BME280;66481;51.332;22.804;2023-03-23T20:49:42;98956.91;;;11.88;73.61
77410;BME280;66481;51.332;22.804;2023-03-23T20:53:43;98963.22;;;11.96;73.26
77410;BME280;66481;51.332;22.804;2023-03-23T20:57:45;98957.06;;;11.86;74.30
77410;BME280;66481;51.332;22.804;2023-03-23T21:01:46;98957.88;;;11.86;73.79
77410;BME280;66481;51.332;22.804;2023-03-23T21:05:50;98967.94;;;11.83;74.90
77410;BME280;66481;51.332;22.804;2023-03-23T21:09:51;98972.41;;;11.82;74.33
77410;BME280;66481;51.332;22.804;2023-03-23T21:13:52;98979.66;;;11.80;75.09
77410;BME280;66481;51.332;22.804;2023-03-23T21:17:54;98978.44;;;11.94;73.88
77410;BME280;66481;51.332;22.804;2023-03-23T21:21:56;98983.19;;;11.91;73.39
77410;BME280;66481;51.332;22.804;2023-03-23T21:26:02;98984.28;;;12.08;73.27
77410;BME280;66481;51.332;22.804;2023-03-23T21:30:05;98992.94;;;12.10;73.15
77410;BME280;66481;51.332;22.804;2023-03-23T21:34:07;99000.59;;;12.13;72.37
77410;BME280;66481;51.332;22.804;2023-03-23T21:38:08;98999.22;;;12.09;72.69
77410;BME280;66481;51.332;22.804;2023-03-23T21:42:14;98991.69;;;12.04;72.91
77410;BME280;66481;51.332;22.804;2023-03-23T21:46:16;98990.16;;;12.01;72.43
77410;BME280;66481;51.332;22.804;2023-03-23T21:50:18;98994.56;;;11.81;73.31
77410;BME280;66481;51.332;22.804;2023-03-23T21:54:22;98990.81;;;11.74;73.92
77410;BME280;66481;51.332;22.804;2023-03-23T21:58:24;98988.84;;;11.76;73.60
77410;BME280;66481;51.332;22.804;2023-03-23T22:02:28;98996.41;;;11.81;73.64
77410;BME280;66481;51.332;22.804;2023-03-23T22:06:29;98990.28;;;11.80;72.83
77410;BME280;66481;51.332;22.804;2023-03-23T22:10:31;98988.28;;;11.73;73.05
77410;BME280;66481;51.332;22.804;2023-03-23T22:14:32;98989.69;;;11.67;74.26
77410;BME280;66481;51.332;22.804;2023-03-23T22:18:34;98989.53;;;11.59;74.02
77410;BME280;66481;51.332;22.804;2023-03-23T22:22:35;98998.47;;;11.58;74.22
77410;BME280;66481;51.332;22.804;2023-03-23T22:26:36;99004.19;;;11.53;74.52
77410;BME280;66481;51.332;22.804;2023-03-23T22:30:38;98995.38;;;11.43;74.95
77410;BME280;66481;51.332;22.804;2023-03-23T22:34:39;99002.63;;;11.41;75.22
77410;BME280;66481;51.332;22.804;2023-03-23T22:38:42;98999.28;;;11.39;75.45
77410;BME280;66481;51.332;22.804;2023-03-23T22:42:44;98984.22;;;11.39;75.32
77410;BME280;66481;51.332;22.804;2023-03-23T22:46:46;98982.53;;;11.28;75.74
77410;BME280;66481;51.332;22.804;2023-03-23T22:50:48;98980.72;;;11.29;75.51
77410;BME280;66481;51.332;22.804;2023-03-23T22:54:50;98969.69;;;11.24;75.90
77410;BME280;66481;51.332;22.804;2023-03-23T22:58:51;98982.19;;;11.12;76.35
77410;BME280;66481;51.332;22.804;2023-03-23T23:02:54;98985.25;;;11.07;77.26